Time;durP1;ratioP1;P1;durP2;ratioP2;P2;SDS_P1;SDS_P2;PMS_P1;PMS_P2;Temp;Humidity;BMP_temperature;BMP_pressure;BME280_temperature;BME280_humidity;BME280_pressure;Samples;Min_cycle;Max_cycle;Signal;HPM_P1;HPM_P2
2023/07/02 00:00:06;;;;;;;4.13;3.45;;;;;;;20.17;49.41;98243.91;5126373;28;20043;-76
2023/07/02 00:02:33;;;;;;;4.28;2.88;;;;;;;20.14;49.82;98237.00;5126742;28;20039;-76
2023/07/02 00:05:00;;;;;;;3.42;2.60;;;;;;;20.10;49.60;98237.53;5126047;28;20238;-76
2023/07/02 00:07:26;;;;;;;4.05;2.92;;;;;;;20.09;49.65;98239.38;5127118;28;20047;-76
2023/07/02 00:09:53;;;;;;;3.83;2.63;;;;;;;20.15;49.52;98235.16;5127110;28;20212;-75
2023/07/02 00:12:22;;;;;;;3.97;2.58;;;;;;;19.16;49.45;98066.97;5127349;28;20089;-75
2023/07/02 00:14:48;;;;;;;4.38;2.45;;;;;;;20.20;49.56;98235.47;5126740;28;20051;-76
2023/07/02 00:17:15;;;;;;;4.90;3.22;;;;;;;20.03;49.75;98212.34;5127629;28;20044;-76
2023/07/02 00:19:42;;;;;;;4.65;2.90;;;;;;;20.11;49.78;98240.03;5126871;28;20043;-76
2023/07/02 00:22:09;;;;;;;4.10;2.70;;;;;;;20.21;49.56;98239.00;5127401;28;20047;-75
2023/07/02 00:24:36;;;;;;;4.00;2.85;;;;;;;20.20;49.25;98235.47;5126451;28;20088;-76
2023/07/02 00:27:02;;;;;;;4.28;3.25;;;;;;;20.16;49.75;98234.16;5125944;28;20039;-76
2023/07/02 00:29:30;;;;;;;3.40;2.38;;;;;;;20.16;49.71;98236.84;5127439;28;20288;-76
2023/07/02 00:31:57;;;;;;;3.65;2.85;;;;;;;20.18;49.63;98240.19;5126480;28;20059;-76
2023/07/02 00:34:24;;;;;;;3.63;2.55;;;;;;;20.21;49.52;98239.00;5126698;28;20035;-76
2023/07/02 00:36:51;;;;;;;7.43;3.00;;;;;;;20.25;49.56;98237.69;5126656;28;20051;-76
2023/07/02 00:39:18;;;;;;;4.28;2.83;;;;;;;20.24;49.35;98246.78;5125753;28;20039;-76
2023/07/02 00:41:46;;;;;;;4.05;3.08;;;;;;;20.19;49.64;98240.03;5126868;28;20066;-76
2023/07/02 00:44:13;;;;;;;4.25;2.92;;;;;;;18.21;49.33;97910.19;5126728;28;20303;-75
2023/07/02 00:46:41;;;;;;;4.63;3.10;;;;;;;20.26;49.52;98239.38;5126457;28;20050;-75
2023/07/02 00:49:10;;;;;;;4.15;2.95;;;;;;;20.26;49.43;98231.28;5125556;28;20036;-75
2023/07/02 00:51:37;;;;;;;3.92;3.00;;;;;;;20.21;49.51;98239.84;5126638;28;20059;-75
2023/07/02 00:54:04;;;;;;;6.47;3.08;;;;;;;20.13;49.85;98237.19;5126431;28;20031;-76
2023/07/02 00:56:31;;;;;;;4.32;2.90;;;;;;;20.11;49.59;98244.59;5126222;28;20050;-76
2023/07/02 00:58:58;;;;;;;4.35;3.10;;;;;;;20.15;49.43;98240.53;5125308;28;20088;-76
2023/07/02 01:01:28;;;;;;;4.30;2.85;;;;;;;19.90;49.70;98198.59;5126043;28;20184;-76
2023/07/02 01:03:59;;;;;;;3.33;2.45;;;;;;;20.17;49.47;98236.66;5125611;28;20349;-76
2023/07/02 01:06:27;;;;;;;5.00;3.00;;;;;;;20.05;49.80;98232.66;5125370;28;20156;-76
2023/07/02 01:08:56;;;;;;;3.80;2.53;;;;;;;20.08;49.94;98240.38;5126188;28;20047;-75
2023/07/02 01:11:27;;;;;;;3.70;2.85;;;;;;;20.09;49.86;98239.38;5126153;28;20043;-76
2023/07/02 01:13:56;;;;;;;4.47;2.67;;;;;;;20.10;49.77;98240.22;5126662;28;20106;-76
2023/07/02 01:16:23;;;;;;;6.13;2.92;;;;;;;20.10;49.72;98238.38;5125917;28;20058;-76
2023/07/02 01:18:54;;;;;;;4.25;2.83;;;;;;;20.10;49.64;98243.75;5126617;28;20043;-76
2023/07/02 01:21:24;;;;;;;3.92;2.95;;;;;;;20.08;49.83;98250.31;5125183;28;20062;-76
2023/07/02 01:23:51;;;;;;;3.50;2.90;;;;;;;20.06;49.91;98245.09;5126211;28;20280;-76
2023/07/02 01:26:18;;;;;;;4.45;2.80;;;;;;;20.02;49.90;98243.75;5126296;28;20048;-76
2023/07/02 01:28:45;;;;;;;4.82;3.03;;;;;;;19.21;49.92;98096.00;5126222;28;20058;-76
2023/07/02 01:31:12;;;;;;;3.88;2.70;;;;;;;20.07;49.67;98236.03;5126565;28;20050;-76
2023/07/02 01:33:38;;;;;;;4.13;2.83;;;;;;;20.04;49.69;98239.06;5130009;28;20116;-76
2023/07/02 01:36:06;;;;;;;5.25;2.67;;;;;;;19.95;50.20;98237.38;5130131;28;20104;-76
2023/07/02 01:38:35;;;;;;;4.18;3.10;;;;;;;18.71;49.73;98040.66;5130095;28;20043;-76
2023/07/02 01:41:02;;;;;;;4.15;2.97;;;;;;;17.62;50.17;97877.31;5130071;28;20106;-77
2023/07/02 01:43:28;;;;;;;4.93;3.33;;;;;;;19.78;49.93;98217.72;5129930;28;20145;-76
2023/07/02 01:45:55;;;;;;;3.90;3.00;;;;;;;19.94;50.07;98232.19;5128758;28;20096;-76
2023/07/02 01:48:22;;;;;;;4.20;3.08;;;;;;;19.84;50.24;98235.91;5130178;28;20115;-76
2023/07/02 01:50:49;;;;;;;4.43;2.60;;;;;;;19.88;50.23;98230.19;5129865;28;20073;-76
2023/07/02 01:53:16;;;;;;;4.30;2.72;;;;;;;19.76;50.46;98235.03;5130426;28;20040;-76
2023/07/02 01:55:44;;;;;;;3.75;2.80;;;;;;;19.77;50.50;98236.72;5129318;28;20050;-76
2023/07/02 01:58:10;;;;;;;5.22;2.80;;;;;;;19.84;50.14;98235.06;5129701;28;20069;-76
2023/07/02 02:00:37;;;;;;;4.00;3.08;;;;;;;19.79;50.25;98234.69;5128846;28;20035;-76
2023/07/02 02:03:05;;;;;;;4.80;2.72;;;;;;;19.81;50.63;98236.22;5128891;28;20052;-76
2023/07/02 02:05:32;;;;;;;4.18;2.80;;;;;;;19.78;50.36;98241.09;5129787;28;20054;-76
2023/07/02 02:07:59;;;;;;;4.75;3.00;;;;;;;19.79;50.69;98245.44;5128728;28;20071;-76
2023/07/02 02:10:25;;;;;;;4.13;3.20;;;;;;;19.76;50.36;98238.56;5129797;28;20047;-76
2023/07/02 02:12:54;;;;;;;4.53;3.10;;;;;;;19.64;51.03;98231.00;5128675;28;20047;-76
2023/07/02 02:15:20;;;;;;;4.47;2.72;;;;;;;19.69;50.71;98242.94;5128558;28;20303;-76
2023/07/02 02:17:47;;;;;;;4.15;2.75;;;;;;;19.73;50.74;98249.66;5129654;28;20040;-76
2023/07/02 02:20:14;;;;;;;4.57;2.90;;;;;;;19.64;51.12;98245.28;5128526;28;20045;-76
2023/07/02 02:22:40;;;;;;;4.47;3.10;;;;;;;19.69;50.92;98248.31;5128947;28;20040;-76
2023/07/02 02:25:08;;;;;;;5.15;2.90;;;;;;;19.65;50.91;98248.81;5129405;28;20081;-76
2023/07/02 02:27:35;;;;;;;5.07;3.55;;;;;;;19.55;51.40;98240.94;5129806;28;20322;-76
2023/07/02 02:30:03;;;;;;;4.47;2.88;;;;;;;19.59;51.28;98254.88;5128358;28;20040;-76
2023/07/02 02:32:30;;;;;;;3.95;2.92;;;;;;;19.60;51.39;98257.38;5129070;28;20059;-76
2023/07/02 02:34:56;;;;;;;4.55;3.17;;;;;;;19.51;51.54;98253.84;5129404;28;20047;-76
2023/07/02 02:37:23;;;;;;;4.72;3.30;;;;;;;19.50;51.81;98248.66;5129307;28;20084;-76
2023/07/02 02:39:50;;;;;;;5.78;2.88;;;;;;;19.43;51.52;98253.00;5129263;28;20044;-76
2023/07/02 02:42:17;;;;;;;4.20;2.85;;;;;;;19.15;51.63;98213.00;5129547;28;20224;-75
2023/07/02 02:44:43;;;;;;;4.47;2.83;;;;;;;19.45;51.65;98251.00;5127938;28;20284;-76
2023/07/02 02:47:11;;;;;;;5.22;3.35;;;;;;;19.43;51.84;98250.31;5129393;28;20234;-76
2023/07/02 02:49:39;;;;;;;5.65;3.30;;;;;;;19.41;51.85;98253.19;5128829;28;20055;-75
2023/07/02 02:52:06;;;;;;;3.90;3.17;;;;;;;19.41;52.17;98246.97;5128697;28;20040;-76
2023/07/02 02:54:33;;;;;;;3.78;2.95;;;;;;;19.41;51.79;98255.88;5128727;28;20032;-75
2023/07/02 02:56:59;;;;;;;4.38;3.25;;;;;;;19.35;52.41;98255.66;5128608;28;20058;-76
2023/07/02 02:59:26;;;;;;;4.00;3.42;;;;;;;19.30;52.30;98252.63;5129077;28;20051;-76
2023/07/02 03:01:53;;;;;;;4.85;3.30;;;;;;;19.29;52.29;98251.78;5129100;28;20273;-76
2023/07/02 03:04:23;;;;;;;3.78;2.97;;;;;;;19.34;52.69;98262.88;5127508;28;20058;-77
2023/07/02 03:06:50;;;;;;;4.35;3.10;;;;;;;19.35;52.66;98256.50;5127470;28;20044;-76
2023/07/02 03:09:17;;;;;;;5.72;3.15;;;;;;;19.31;52.65;98259.69;5128891;28;20051;-77
2023/07/02 03:11:44;;;;;;;4.03;3.40;;;;;;;19.36;52.25;98260.03;5128382;28;20062;-76
2023/07/02 03:14:11;;;;;;;3.65;2.92;;;;;;;19.40;52.61;98261.41;5127946;28;20035;-76
2023/07/02 03:16:38;;;;;;;6.22;3.50;;;;;;;19.38;52.51;98255.34;5128217;28;20291;-76
2023/07/02 03:19:04;;;;;;;5.47;3.70;;;;;;;19.28;52.60;98263.56;5128467;28;20051;-76
2023/07/02 03:21:32;;;;;;;4.22;3.42;;;;;;;19.31;52.68;98257.00;5128610;28;20050;-77
2023/07/02 03:23:59;;;;;;;3.67;2.83;;;;;;;19.23;53.24;98261.34;5128616;28;20043;-77
2023/07/02 03:26:26;;;;;;;4.80;3.53;;;;;;;19.20;53.11;98276.97;5128657;28;20051;-76
2023/07/02 03:28:53;;;;;;;7.00;3.65;;;;;;;19.24;53.06;98267.56;5128338;28;20046;-76
2023/07/02 03:31:19;;;;;;;5.03;3.38;;;;;;;19.29;53.12;98275.97;5128025;28;20112;-76
2023/07/02 03:33:46;;;;;;;4.63;3.35;;;;;;;19.26;53.51;98281.69;5127382;27;20131;-77
2023/07/02 03:36:13;;;;;;;4.28;3.40;;;;;;;19.23;53.37;98276.63;5127232;28;20048;-77
2023/07/02 03:38:41;;;;;;;5.75;3.55;;;;;;;19.27;53.66;98277.16;5128096;28;20054;-76
2023/07/02 03:41:08;;;;;;;4.65;3.45;;;;;;;19.28;53.73;98278.81;5126862;28;20039;-76
2023/07/02 03:43:35;;;;;;;5.53;3.22;;;;;;;19.23;53.78;98284.69;5127749;28;20059;-76
2023/07/02 03:46:01;;;;;;;4.28;3.35;;;;;;;19.35;53.48;98288.75;5126747;28;20054;-76
2023/07/02 03:48:28;;;;;;;4.88;3.75;;;;;;;19.33;53.89;98288.06;5127848;28;20105;-76
2023/07/02 03:50:55;;;;;;;4.05;3.03;;;;;;;19.37;53.75;98284.03;5127568;28;20058;-76
2023/07/02 03:53:21;;;;;;;4.95;3.90;;;;;;;19.39;54.00;98286.59;5128036;28;20078;-77
2023/07/02 03:55:49;;;;;;;5.15;3.60;;;;;;;19.37;53.90;98278.66;5127140;28;20165;-76
2023/07/02 03:58:16;;;;;;;4.82;3.70;;;;;;;19.44;54.10;98287.78;5127493;28;20043;-76
2023/07/02 04:00:44;;;;;;;5.20;3.72;;;;;;;19.42;53.79;98292.47;5127635;28;20065;-76
2023/07/02 04:03:10;;;;;;;5.47;3.40;;;;;;;19.45;53.77;98296.69;5127036;28;20043;-77
2023/07/02 04:05:37;;;;;;;5.00;3.35;;;;;;;19.45;54.06;98300.22;5127482;28;20051;-76
2023/07/02 04:08:04;;;;;;;4.15;3.50;;;;;;;19.43;54.12;98287.94;5127252;28;20039;-76
2023/07/02 04:10:30;;;;;;;5.05;3.85;;;;;;;19.16;54.27;98251.44;5127443;28;20085;-76
2023/07/02 04:12:59;;;;;;;5.10;3.45;;;;;;;19.49;54.13;98296.19;5126867;28;20039;-76
2023/07/02 04:15:26;;;;;;;5.03;3.78;;;;;;;19.49;54.40;98304.25;5127635;28;20039;-76
2023/07/02 04:17:53;;;;;;;4.15;3.15;;;;;;;19.51;54.38;98286.09;5127325;28;20057;-76
2023/07/02 04:20:20;;;;;;;4.35;3.35;;;;;;;19.36;54.61;98281.53;5127288;28;20105;-76
2023/07/02 04:22:48;;;;;;;5.40;3.83;;;;;;;19.43;54.48;98282.56;5127531;28;20050;-77
2023/07/02 04:25:15;;;;;;;5.18;3.28;;;;;;;19.55;55.04;98314.31;5127109;28;20099;-76
2023/07/02 04:27:43;;;;;;;5.53;3.90;;;;;;;19.53;54.91;98304.75;5126061;28;20122;-77
2023/07/02 04:30:13;;;;;;;5.13;3.70;;;;;;;19.44;55.74;98314.66;5127329;28;20279;-76
2023/07/02 04:32:41;;;;;;;4.07;2.97;;;;;;;19.42;55.61;98286.25;5126720;28;20311;-76
2023/07/02 04:35:08;;;;;;;4.18;3.25;;;;;;;19.46;56.06;98328.75;5127273;28;20059;-77
2023/07/02 04:37:35;;;;;;;5.75;3.03;;;;;;;19.43;56.47;98330.94;5125898;28;20039;-77
2023/07/02 04:40:03;;;;;;;3.95;3.25;;;;;;;19.41;56.95;98349.91;5126363;28;20047;-77
2023/07/02 04:42:34;;;;;;;5.78;3.78;;;;;;;19.46;56.80;98346.72;5125753;28;20050;-76
2023/07/02 04:45:03;;;;;;;4.13;2.97;;;;;;;19.49;56.74;98344.53;5127013;28;20040;-77
2023/07/02 04:47:31;;;;;;;5.32;3.30;;;;;;;19.50;57.20;98345.38;5126501;28;20187;-76
2023/07/02 04:49:58;;;;;;;4.57;3.22;;;;;;;19.58;57.30;98341.88;5125611;28;20123;-76
2023/07/02 04:52:25;;;;;;;5.18;3.22;;;;;;;19.51;57.48;98357.81;5126659;28;20306;-76
2023/07/02 04:54:52;;;;;;;4.25;3.20;;;;;;;19.46;58.14;98352.09;5125533;28;20035;-77
2023/07/02 04:57:19;;;;;;;6.10;3.63;;;;;;;19.51;57.97;98349.75;5126308;28;20242;-77
2023/07/02 04:59:45;;;;;;;4.18;3.03;;;;;;;19.48;58.66;98352.78;5126661;28;20043;-77
2023/07/02 05:02:12;;;;;;;5.30;3.42;;;;;;;19.41;58.95;98357.97;5126626;28;20092;-77
2023/07/02 05:04:40;;;;;;;4.63;2.78;;;;;;;19.44;59.21;98360.31;5126784;28;20263;-77
2023/07/02 05:07:07;;;;;;;3.47;2.78;;;;;;;19.46;59.21;98344.03;5124986;28;20154;-77
2023/07/02 05:09:33;;;;;;;3.63;2.70;;;;;;;19.43;59.71;98357.81;5126473;28;20044;-77
2023/07/02 05:12:00;;;;;;;3.70;2.50;;;;;;;19.49;59.65;98357.16;5126477;28;20062;-77
2023/07/02 05:14:27;;;;;;;4.20;2.63;;;;;;;19.42;60.09;98367.72;5126416;28;20315;-76
2023/07/02 05:16:54;;;;;;;5.07;2.90;;;;;;;19.21;60.35;98337.75;5126101;28;20062;-77
2023/07/02 05:19:21;;;;;;;4.20;2.53;;;;;;;19.37;60.46;98353.06;5126681;28;20043;-77
2023/07/02 05:21:49;;;;;;;4.30;3.10;;;;;;;19.49;60.34;98366.03;5126298;28;20043;-77
2023/07/02 05:24:15;;;;;;;3.65;2.70;;;;;;;19.49;60.29;98384.84;5126344;28;20235;-77
2023/07/02 05:26:42;;;;;;;4.70;2.63;;;;;;;19.32;61.19;98391.16;5126271;28;20272;-77
2023/07/02 05:29:09;;;;;;;4.03;2.85;;;;;;;19.21;61.82;98391.47;5126026;28;20039;-77
2023/07/02 05:31:35;;;;;;;4.40;3.20;;;;;;;19.35;61.44;98382.78;5124904;28;20077;-77
2023/07/02 05:34:02;;;;;;;4.95;3.10;;;;;;;19.32;61.93;98393.84;5125949;28;20101;-77
2023/07/02 05:36:29;;;;;;;4.18;3.20;;;;;;;19.40;61.85;98385.00;5125206;28;20201;-77
2023/07/02 05:38:57;;;;;;;4.05;3.30;;;;;;;19.30;62.27;98403.06;5126080;28;20081;-77
2023/07/02 05:41:24;;;;;;;3.75;2.63;;;;;;;19.39;62.15;98400.28;5126166;28;20059;-76
2023/07/02 05:43:51;;;;;;;3.30;2.67;;;;;;;19.43;62.39;98403.47;5126035;28;20202;-77
2023/07/02 05:46:18;;;;;;;3.47;2.50;;;;;;;19.45;62.84;98405.00;5124979;28;20290;-77
2023/07/02 05:48:46;;;;;;;6.78;2.92;;;;;;;19.39;63.29;98407.50;5125887;28;20051;-77
2023/07/02 05:51:13;;;;;;;3.72;2.70;;;;;;;19.53;62.70;98407.72;5126064;28;20044;-77
2023/07/02 05:53:39;;;;;;;4.70;2.88;;;;;;;19.49;61.86;98384.84;5125996;28;20044;-77
2023/07/02 05:56:07;;;;;;;4.10;2.90;;;;;;;19.48;63.31;98419.94;5126089;28;20054;-76
2023/07/02 05:58:34;;;;;;;6.05;3.50;;;;;;;19.39;64.15;98412.88;5124822;28;20039;-76
2023/07/02 06:01:01;;;;;;;4.05;3.00;;;;;;;19.46;63.73;98424.66;5125973;28;20200;-76
2023/07/02 06:03:28;;;;;;;5.88;3.30;;;;;;;19.44;64.16;98424.81;5124790;28;20043;-76
2023/07/02 06:05:55;;;;;;;4.30;3.28;;;;;;;17.44;64.26;98092.66;5125837;28;20036;-77
2023/07/02 06:08:21;;;;;;;4.53;3.10;;;;;;;19.52;63.86;98430.22;5126129;28;20044;-76
2023/07/02 06:10:48;;;;;;;4.95;3.10;;;;;;;19.52;64.60;98440.97;5125015;28;20048;-77
2023/07/02 06:13:17;;;;;;;4.75;3.13;;;;;;;19.13;65.08;98394.94;5124771;28;20332;-76
2023/07/02 06:15:45;;;;;;;4.15;3.20;;;;;;;19.43;64.86;98441.09;5124642;28;20039;-77
2023/07/02 06:18:11;;;;;;;4.72;3.28;;;;;;;19.50;64.73;98436.75;5126903;28;20130;-77
2023/07/02 06:20:38;;;;;;;4.18;3.00;;;;;;;19.45;65.03;98449.84;5129617;28;20077;-77
2023/07/02 06:23:05;;;;;;;6.07;3.25;;;;;;;19.59;64.17;98456.44;5129010;28;20086;-77
2023/07/02 06:25:31;;;;;;;4.13;3.10;;;;;;;19.56;64.53;98476.41;5129398;28;20055;-76
2023/07/02 06:27:58;;;;;;;7.40;3.38;;;;;;;19.58;64.07;98465.50;5129177;28;20047;-77
2023/07/02 06:30:27;;;;;;;3.78;2.92;;;;;;;19.63;64.03;98455.09;5129388;28;20062;-77
2023/07/02 06:32:55;;;;;;;4.03;3.25;;;;;;;19.71;63.69;98461.34;5128023;28;20264;-77
2023/07/02 06:35:22;;;;;;;4.75;3.28;;;;;;;19.68;63.69;98458.13;5129360;28;20050;-77
2023/07/02 06:37:48;;;;;;;3.60;3.05;;;;;;;19.74;63.68;98460.16;5129442;28;20051;-77
2023/07/02 06:40:15;;;;;;;5.32;2.78;;;;;;;19.76;64.16;98464.38;5129086;28;20055;-77
2023/07/02 06:42:42;;;;;;;4.32;3.13;;;;;;;19.67;64.09;98461.84;5129073;28;20039;-77
2023/07/02 06:45:09;;;;;;;3.85;3.28;;;;;;;19.83;63.70;98456.53;5128621;28;20040;-77
2023/07/02 06:47:37;;;;;;;4.72;3.72;;;;;;;19.87;63.38;98447.13;5129318;28;20349;-77
2023/07/02 06:50:05;;;;;;;3.88;2.78;;;;;;;19.76;63.54;98448.25;5129422;28;20044;-77
2023/07/02 06:52:31;;;;;;;3.85;2.60;;;;;;;19.70;63.92;98453.44;5129371;28;20039;-77
2023/07/02 06:54:58;;;;;;;5.60;3.00;;;;;;;19.29;63.72;98361.09;5129107;28;20052;-76
2023/07/02 06:57:25;;;;;;;3.72;2.75;;;;;;;19.90;63.38;98457.56;5127965;28;20233;-77
2023/07/02 06:59:52;;;;;;;4.97;2.85;;;;;;;19.95;63.27;98459.75;5128854;28;20040;-77
2023/07/02 07:02:18;;;;;;;4.97;2.72;;;;;;;19.93;63.26;98456.38;5128767;28;20039;-77
2023/07/02 07:04:47;;;;;;;4.43;2.67;;;;;;;19.99;62.98;98459.25;5128812;28;20307;-77
2023/07/02 07:07:14;;;;;;;4.53;3.17;;;;;;;20.04;62.71;98461.44;5128741;28;20051;-77
2023/07/02 07:09:41;;;;;;;4.15;3.10;;;;;;;20.03;63.22;98463.28;5127625;28;20329;-77
2023/07/02 07:12:08;;;;;;;3.55;2.65;;;;;;;20.18;62.34;98458.09;5129023;28;20039;-76
2023/07/02 07:14:35;;;;;;;4.05;3.28;;;;;;;20.26;62.43;98458.13;5127579;28;20039;-77
2023/07/02 07:17:02;;;;;;;4.95;2.50;;;;;;;20.35;61.79;98450.91;5128525;28;20070;-77
2023/07/02 07:19:29;;;;;;;4.25;2.58;;;;;;;20.43;61.55;98453.59;5128613;28;20118;-77
2023/07/02 07:21:57;;;;;;;3.58;2.78;;;;;;;20.47;61.21;98447.69;5128532;28;20043;-77
2023/07/02 07:24:24;;;;;;;3.22;2.75;;;;;;;20.61;61.28;98443.47;5128194;28;20069;-77
2023/07/02 07:26:51;;;;;;;3.88;2.75;;;;;;;20.79;61.00;98452.19;5128105;28;20234;-77
2023/07/02 07:29:18;;;;;;;5.05;2.97;;;;;;;20.92;59.91;98440.06;5127004;28;20180;-77
2023/07/02 07:31:45;;;;;;;3.88;3.00;;;;;;;20.85;59.21;98452.53;5128094;28;20070;-77
2023/07/02 07:34:12;;;;;;;5.35;3.28;;;;;;;20.92;59.28;98456.22;5128013;28;20043;-77
2023/07/02 07:36:39;;;;;;;3.55;3.03;;;;;;;20.89;58.94;98448.47;5128398;28;20039;-77
2023/07/02 07:39:07;;;;;;;4.43;3.00;;;;;;;20.95;59.42;98459.41;5127058;28;20039;-76
2023/07/02 07:41:34;;;;;;;4.38;3.08;;;;;;;21.14;58.21;98456.34;5128275;28;20222;-77
2023/07/02 07:44:01;;;;;;;4.05;3.10;;;;;;;20.84;58.02;98430.16;5126862;28;20057;-77
2023/07/02 07:46:28;;;;;;;3.63;3.05;;;;;;;21.29;58.50;98456.47;5127973;28;20292;-77
2023/07/02 07:48:54;;;;;;;4.15;3.00;;;;;;;21.31;57.90;98459.00;5127977;28;20069;-77
2023/07/02 07:51:21;;;;;;;3.85;2.95;;;;;;;21.35;57.31;98438.75;5127775;28;20043;-77
2023/07/02 07:53:48;;;;;;;4.18;2.95;;;;;;;21.58;57.00;98461.22;5127994;28;20304;-77
2023/07/02 07:56:16;;;;;;;5.20;3.28;;;;;;;;;;5127504;28;20061;-77
2023/07/02 07:58:42;;;;;;;3.63;2.97;;;;;;;21.35;56.92;98445.00;5127846;28;20240;-77
2023/07/02 08:01:09;;;;;;;5.00;2.88;;;;;;;21.38;57.27;98455.41;5127944;28;20051;-77
2023/07/02 08:03:38;;;;;;;4.00;3.40;;;;;;;21.71;56.61;98449.88;5127637;28;20050;-77
2023/07/02 08:06:05;;;;;;;3.83;2.78;;;;;;;21.61;56.54;98449.25;5127520;28;20043;-77
2023/07/02 08:08:32;;;;;;;4.18;3.08;;;;;;;21.90;56.01;98445.91;5127541;28;20295;-77
2023/07/02 08:10:58;;;;;;;3.35;2.90;;;;;;;21.97;55.45;98439.63;5127294;28;20203;-77
2023/07/02 08:13:27;;;;;;;3.75;2.90;;;;;;;22.08;55.66;98431.09;5127399;28;20035;-77
2023/07/02 08:15:53;;;;;;;3.40;2.95;;;;;;;22.37;54.50;98424.97;5127429;28;20058;-77
2023/07/02 08:18:20;;;;;;;3.47;2.70;;;;;;;22.79;53.84;98420.94;5126309;28;20085;-76
2023/07/02 08:20:47;;;;;;;3.75;3.22;;;;;;;22.73;53.50;98418.97;5127338;28;20043;-77
2023/07/02 08:23:14;;;;;;;3.45;2.90;;;;;;;22.68;52.87;98416.81;5126714;28;20044;-77
2023/07/02 08:25:41;;;;;;;3.67;2.88;;;;;;;22.72;51.97;98428.09;5127417;28;20041;-77
2023/07/02 08:28:07;;;;;;;4.38;2.95;;;;;;;22.70;52.38;98430.13;5126862;28;20181;-77
2023/07/02 08:30:36;;;;;;;3.67;2.90;;;;;;;22.73;51.86;98424.38;5127121;28;20059;-77
2023/07/02 08:33:02;;;;;;;3.60;2.90;;;;;;;22.99;51.62;98434.72;5125817;28;20055;-77
2023/07/02 08:35:29;;;;;;;3.42;2.97;;;;;;;23.08;51.18;98433.59;5127279;28;20074;-78
2023/07/02 08:37:56;;;;;;;3.85;3.00;;;;;;;23.20;51.37;98431.28;5109134;28;20088;-78
2023/07/02 08:40:23;;;;;;;3.75;2.80;;;;;;;23.68;49.61;98429.84;5126445;28;20057;-77
2023/07/02 08:42:50;;;;;;;4.22;2.63;;;;;;;23.37;49.35;98400.34;5127222;28;20061;-77
2023/07/02 08:45:17;;;;;;;5.15;2.80;;;;;;;23.36;50.18;98448.16;5126600;28;20304;-77
2023/07/02 08:47:46;;;;;;;4.90;2.97;;;;;;;22.87;50.97;98447.00;5126524;28;20155;-77
2023/07/02 08:50:14;;;;;;;3.33;2.55;;;;;;;22.68;51.44;98441.13;5126418;28;20058;-77
2023/07/02 08:52:42;;;;;;;4.90;2.83;;;;;;;22.35;51.73;98424.31;5126977;28;20111;-77
2023/07/02 08:55:10;;;;;;;3.88;2.90;;;;;;;22.38;51.64;98380.75;5126725;28;20170;-77
2023/07/02 08:57:36;;;;;;;4.03;2.97;;;;;;;22.66;51.86;98424.25;5126377;28;20057;-77
2023/07/02 09:00:09;;;;;;;4.75;3.50;;;;;;;22.76;51.66;98429.41;5126777;28;20039;-77
2023/07/02 09:02:36;;;;;;;5.25;3.33;;;;;;;22.73;51.53;98433.31;5126614;28;20043;-77
2023/07/02 09:05:05;;;;;;;3.40;2.70;;;;;;;22.75;51.33;98438.53;5125447;28;20039;-77
2023/07/02 09:07:32;;;;;;;3.85;2.75;;;;;;;22.81;51.20;98428.84;5126761;28;20339;-77
2023/07/02 09:09:59;;;;;;;3.80;2.90;;;;;;;22.86;51.20;98432.66;5126460;28;20036;-77
2023/07/02 09:12:27;;;;;;;4.75;2.75;;;;;;;23.02;50.92;98431.66;5126189;28;20304;-77
2023/07/02 09:14:58;;;;;;;3.78;2.80;;;;;;;23.34;50.41;98428.59;5126167;28;20118;-77
2023/07/02 09:17:30;;;;;;;4.53;2.53;;;;;;;23.52;50.03;98427.34;5126549;28;20048;-77
2023/07/02 09:19:58;;;;;;;3.70;2.90;;;;;;;23.18;49.61;98390.09;5126687;28;20043;-77
2023/07/02 09:22:26;;;;;;;3.50;2.72;;;;;;;23.33;49.15;98417.97;5125235;28;20288;-77
2023/07/02 09:24:54;;;;;;;4.05;2.90;;;;;;;23.35;49.61;98424.88;5125299;28;20039;-77
2023/07/02 09:27:22;;;;;;;3.70;3.03;;;;;;;23.25;49.12;98399.13;5125652;28;20063;-77
2023/07/02 09:29:52;;;;;;;4.20;3.08;;;;;;;23.17;48.67;98389.25;5126108;28;20199;-77
2023/07/02 09:32:26;;;;;;;4.95;3.13;;;;;;;23.27;49.27;98427.66;5126097;28;20212;-77
2023/07/02 09:34:55;;;;;;;4.53;3.08;;;;;;;23.05;48.98;98398.84;5126321;28;20114;-77
2023/07/02 09:37:22;;;;;;;3.80;2.95;;;;;;;22.97;49.18;98380.88;5126276;28;20301;-77
2023/07/02 09:39:52;;;;;;;3.70;3.00;;;;;;;23.25;49.53;98429.69;5125691;28;20052;-77
2023/07/02 09:42:20;;;;;;;6.63;3.15;;;;;;;23.16;49.72;98429.97;5125950;28;20055;-77
2023/07/02 09:44:47;;;;;;;4.25;2.85;;;;;;;23.19;49.50;98435.84;5124958;28;20039;-77
2023/07/02 09:47:18;;;;;;;5.20;2.88;;;;;;;23.24;49.54;98430.72;5125804;28;20039;-77
2023/07/02 09:49:50;;;;;;;4.70;3.28;;;;;;;23.22;49.19;98434.63;5126030;28;20062;-77
2023/07/02 09:52:18;;;;;;;3.67;2.90;;;;;;;23.09;49.21;98435.28;5125492;28;20299;-77
2023/07/02 09:54:46;;;;;;;3.45;2.70;;;;;;;23.01;49.39;98441.63;5130332;28;20302;-76
2023/07/02 09:57:14;;;;;;;3.47;2.63;;;;;;;22.97;49.43;98445.72;5130012;28;20040;-77
2023/07/02 09:59:41;;;;;;;4.88;3.17;;;;;;;22.92;49.62;98477.03;5130032;28;20309;-77
2023/07/02 10:02:09;;;;;;;3.78;2.80;;;;;;;22.77;49.64;98477.00;5129548;28;20048;-76
2023/07/02 10:04:43;;;;;;;5.53;3.63;;;;;;;22.88;49.54;98470.31;5128821;28;20043;-77
2023/07/02 10:07:10;;;;;;;;;;;;;;;22.86;49.75;98470.50;5130140;28;20043;-77
2023/07/02 10:09:38;;;;;;;3.75;2.53;;;;;;;22.88;49.58;98475.72;5129749;28;19926;-77
2023/07/02 10:12:31;;;;;;;4.03;2.90;;;;;;;23.02;49.32;98473.03;5129068;28;20085;-77
2023/07/02 10:14:59;;;;;;;4.35;3.00;;;;;;;23.11;49.31;98476.47;5129938;28;20047;-77
2023/07/02 10:17:30;;;;;;;4.13;2.40;;;;;;;23.03;49.36;98477.41;5128390;28;20059;-76
2023/07/02 10:19:59;;;;;;;4.88;2.90;;;;;;;22.96;49.57;98473.75;5128314;28;20074;-76
2023/07/02 10:22:25;;;;;;;4.22;2.70;;;;;;;23.04;49.66;98480.94;5128619;28;20284;-77
2023/07/02 10:24:56;;;;;;;4.45;2.70;;;;;;;23.15;49.39;98472.38;5129331;28;20069;-77
2023/07/02 10:27:34;;;;;;;3.33;2.42;;;;;;;23.37;49.14;98470.63;5128885;28;20044;-78
2023/07/02 10:30:01;;;;;;;3.42;2.58;;;;;;;23.54;48.73;98455.06;5129271;28;20044;-77
2023/07/02 10:32:29;;;;;;;4.40;2.97;;;;;;;23.69;48.68;98458.56;5128884;27;20165;-77
2023/07/02 10:34:58;;;;;;;6.05;2.95;;;;;;;23.62;48.03;98463.06;5128994;28;20063;-77
2023/07/02 10:37:25;;;;;;;5.78;2.95;;;;;;;23.43;47.71;98417.69;5128955;28;20114;-77
2023/07/02 10:39:53;;;;;;;3.95;3.00;;;;;;;23.56;48.22;98445.72;5128583;28;20039;-77
2023/07/02 10:42:19;;;;;;;3.10;2.40;;;;;;;23.47;48.43;98427.09;5128998;28;20093;-77
2023/07/02 10:44:52;;;;;;;3.55;3.05;;;;;;;23.33;48.18;98432.31;5129292;28;20062;-77
2023/07/02 10:47:19;;;;;;;3.72;2.28;;;;;;;23.60;47.80;98417.25;5128791;28;20077;-77
2023/07/02 10:49:46;;;;;;;3.83;2.90;;;;;;;23.82;47.69;98471.41;5128985;28;20058;-77
2023/07/02 10:52:13;;;;;;;4.22;2.97;;;;;;;23.11;48.09;98383.75;5128592;28;20114;-77
2023/07/02 10:54:44;;;;;;;4.82;3.08;;;;;;;23.65;47.93;98451.84;5127764;28;20199;-77
2023/07/02 10:57:13;;;;;;;3.83;3.13;;;;;;;23.50;48.01;98429.41;5127686;28;20055;-77
2023/07/02 10:59:40;;;;;;;3.78;2.65;;;;;;;23.54;48.04;98455.88;5127495;28;20054;-77
2023/07/02 11:02:09;;;;;;;4.30;2.90;;;;;;;23.57;48.14;98460.91;5127491;28;20039;-77
2023/07/02 11:04:37;;;;;;;3.63;2.60;;;;;;;23.44;47.94;98471.56;5128804;28;20062;-78
2023/07/02 11:07:05;;;;;;;4.85;3.03;;;;;;;23.29;47.57;98468.88;5127985;28;20081;-77
2023/07/02 11:09:32;;;;;;;3.72;2.78;;;;;;;22.58;47.78;98326.28;5128236;28;20280;-77
2023/07/02 11:12:00;;;;;;;3.63;2.70;;;;;;;23.33;47.75;98470.16;5128068;28;20065;-77
2023/07/02 11:14:28;;;;;;;3.20;2.50;;;;;;;23.37;47.79;98465.22;5128060;28;20096;-77
2023/07/02 11:16:55;;;;;;;3.72;3.00;;;;;;;22.18;47.47;98278.91;5128041;28;20304;-77
2023/07/02 11:19:24;;;;;;;4.85;2.85;;;;;;;23.11;47.19;98395.41;5127958;28;20089;-75
2023/07/02 11:21:52;;;;;;;5.82;3.97;;;;;;;23.41;47.51;98450.31;5127942;28;20039;-75
2023/07/02 11:24:28;;;;;;;5.90;3.53;;;;;;;23.66;47.51;98469.75;5127658;28;20185;-75
2023/07/02 11:26:55;;;;;;;5.97;3.60;;;;;;;22.96;47.12;98349.47;5127898;28;20067;-75
2023/07/02 11:29:22;;;;;;;4.70;3.50;;;;;;;23.87;46.95;98472.53;5128172;28;20040;-75
2023/07/02 11:31:49;;;;;;;3.65;2.97;;;;;;;23.67;46.90;98468.75;5127475;28;20083;-74
2023/07/02 11:34:17;;;;;;;7.32;2.90;;;;;;;23.71;47.45;98437.56;5127941;28;20043;-74